Time;durP1;ratioP1;P1;durP2;ratioP2;P2;SDS_P1;SDS_P2;PMS_P1;PMS_P2;Temp;Humidity;BMP_temperature;BMP_pressure;BME280_temperature;BME280_humidity;BME280_pressure;Samples;Min_cycle;Max_cycle;Signal;HPM_P1;HPM_P2
2021/07/06 00:02:06;;;;;;;7.78;3.80;;;;;;;25.70;66.33;100369.67;1563423;90;21078;-51
2021/07/06 00:04:33;;;;;;;5.17;3.95;;;;;;;25.68;66.50;100369.81;1577184;90;21046;-46
2021/07/06 00:07:00;;;;;;;6.67;3.60;;;;;;;25.69;66.57;100371.52;1573865;90;21544;-46
2021/07/06 00:09:27;;;;;;;7.08;3.70;;;;;;;25.70;66.64;100369.19;1591380;88;21082;-48
2021/07/06 00:11:54;;;;;;;8.05;4.37;;;;;;;25.69;66.68;100371.52;1615601;88;21096;-47
2021/07/06 00:14:21;;;;;;;6.37;4.08;;;;;;;25.68;66.71;100379.14;1614451;88;21574;-47
2021/07/06 00:16:50;;;;;;;8.03;4.15;;;;;;;25.68;66.77;100372.48;1604731;86;21101;-48
2021/07/06 00:19:16;;;;;;;5.08;3.70;;;;;;;25.68;66.80;100375.15;1660944;81;21553;-48
2021/07/06 00:21:43;;;;;;;6.75;3.85;;;;;;;25.70;66.75;100379.00;1738809;81;21023;-48
2021/07/06 00:24:10;;;;;;;6.67;3.47;;;;;;;25.69;66.67;100382.17;1746436;81;21026;-52
2021/07/06 00:26:37;;;;;;;6.22;3.55;;;;;;;25.69;66.69;100383.51;1734836;81;21554;-47
2021/07/06 00:29:05;;;;;;;4.87;3.90;;;;;;;25.68;66.86;100384.47;1734929;82;21126;-50
2021/07/06 00:31:31;;;;;;;5.17;3.83;;;;;;;25.68;67.03;100383.14;1729205;82;21505;-53
2021/07/06 00:33:58;;;;;;;16.10;14.80;;;;;;;25.70;67.11;100393.66;1728773;82;21070;-48
2021/07/06 00:36:25;;;;;;;9.83;6.78;;;;;;;25.70;67.11;100394.50;1738398;82;21085;-48
2021/07/06 00:38:52;;;;;;;8.30;4.60;;;;;;;25.71;67.07;100389.55;1731609;82;21086;-48
2021/07/06 00:41:18;;;;;;;7.15;4.53;;;;;;;25.70;67.01;100394.50;1733024;82;21016;-48
2021/07/06 00:43:45;;;;;;;5.25;4.20;;;;;;;25.70;66.84;100386.51;1736862;82;21090;-52
2021/07/06 00:46:11;;;;;;;10.63;4.40;;;;;;;25.69;66.86;100387.51;1731458;82;21029;-48
2021/07/06 00:48:39;;;;;;;5.47;3.90;;;;;;;25.68;66.98;100385.80;1735309;82;21495;-49
2021/07/06 00:51:05;;;;;;;6.00;4.28;;;;;;;25.68;67.11;100390.28;1731015;82;21046;-52
2021/07/06 00:53:32;;;;;;;4.85;4.20;;;;;;;25.68;67.28;100391.14;1729891;82;21062;-52
2021/07/06 00:55:58;;;;;;;14.13;12.63;;;;;;;25.68;67.14;100385.80;1737405;81;21011;-48
2021/07/06 00:58:25;;;;;;;12.45;11.18;;;;;;;25.71;66.94;100388.20;1738204;81;21022;-48
2021/07/06 01:00:53;;;;;;;7.92;6.78;;;;;;;25.71;66.86;100385.55;1707676;82;21083;-51
2021/07/06 01:03:19;;;;;;;6.55;5.00;;;;;;;25.71;66.76;100395.36;1744384;82;21006;-48
2021/07/06 01:05:46;;;;;;;10.13;4.10;;;;;;;25.72;66.75;100391.69;1731074;82;21070;-48
2021/07/06 01:08:13;;;;;;;5.90;3.87;;;;;;;25.73;66.62;100388.06;1743472;82;21038;-50
2021/07/06 01:10:40;;;;;;;5.53;4.05;;;;;;;25.73;66.54;100392.91;1731587;82;21529;-48
2021/07/06 01:13:08;;;;;;;5.08;4.17;;;;;;;25.74;66.35;100387.91;1744917;82;21025;-48
2021/07/06 01:15:35;;;;;;;5.00;4.05;;;;;;;25.76;66.28;100385.95;1728789;82;21018;-48
2021/07/06 01:18:14;;;;;;;4.78;3.80;;;;;;;25.78;66.14;100381.33;1740522;82;21046;-50
2021/07/06 01:20:51;;;;;;;5.60;3.87;;;;;;;25.80;66.00;100387.36;1668522;84;21534;-48
2021/07/06 01:23:21;;;;;;;6.55;3.45;;;;;;;25.80;65.87;100390.02;1636857;86;21083;-49
2021/07/06 01:25:51;;;;;;;6.53;3.90;;;;;;;25.79;65.83;100387.51;1628037;86;21059;-50
2021/07/06 01:28:18;;;;;;;4.72;3.98;;;;;;;25.77;65.63;100392.98;1640215;86;21110;-48
2021/07/06 01:30:45;;;;;;;4.60;3.62;;;;;;;25.78;65.74;100387.98;1629131;86;22470;-47
2021/07/06 01:33:24;;;;;;;7.25;3.95;;;;;;;25.79;65.75;100392.84;1638297;86;21031;-48
2021/07/06 01:35:52;;;;;;;9.05;4.15;;;;;;;25.81;65.65;100397.05;1652812;86;21701;-48
2021/07/06 01:38:19;;;;;;;3.80;3.50;;;;;;;25.82;65.54;100389.91;1631147;86;21614;-47
2021/07/06 01:40:46;;;;;;;5.67;4.50;;;;;;;25.82;65.53;100390.73;1634387;86;21024;-46
2021/07/06 01:43:14;;;;;;;6.62;4.20;;;;;;;25.83;65.50;100387.09;1641214;85;21035;-52
2021/07/06 01:45:41;;;;;;;15.38;4.60;;;;;;;25.84;65.43;100389.28;1639128;86;21039;-47
2021/07/06 01:48:08;;;;;;;4.90;4.00;;;;;;;25.84;65.42;100390.61;1635496;86;21508;-46
2021/07/06 01:50:38;;;;;;;7.05;4.22;;;;;;;25.84;65.16;100395.94;1652366;86;21047;-48
2021/07/06 01:53:08;;;;;;;4.30;3.58;;;;;;;25.82;65.24;100393.39;1645407;86;21491;-47
2021/07/06 01:55:39;;;;;;;6.80;4.30;;;;;;;25.81;65.21;100395.72;1640006;86;21008;-47
2021/07/06 01:58:07;;;;;;;5.20;4.00;;;;;;;25.80;65.16;100395.36;1643938;86;21114;-48
2021/07/06 02:00:37;;;;;;;7.75;4.00;;;;;;;25.79;65.23;100393.69;1643715;86;22057;-47
2021/07/06 02:03:05;;;;;;;5.90;4.42;;;;;;;25.79;65.33;100396.35;1635140;86;21097;-48
2021/07/06 02:05:37;;;;;;;7.62;4.20;;;;;;;25.81;65.17;100401.05;1634878;86;21067;-48
2021/07/06 02:08:05;;;;;;;6.08;3.92;;;;;;;25.81;65.08;100402.39;1625661;86;21590;-47
2021/07/06 02:10:33;;;;;;;8.00;4.90;;;;;;;25.81;65.17;100395.72;1642128;86;21011;-46
2021/07/06 02:13:01;;;;;;;6.80;4.17;;;;;;;25.81;65.09;100399.72;1636508;86;21078;-48
2021/07/06 02:15:30;;;;;;;7.92;4.10;;;;;;;25.82;65.13;100397.91;1643613;86;21051;-48
2021/07/06 02:17:56;;;;;;;12.30;4.70;;;;;;;25.82;65.16;100400.57;1630071;86;21077;-48
2021/07/06 02:20:23;;;;;;;11.00;4.67;;;;;;;25.82;65.06;100397.91;1651400;86;21598;-52
2021/07/06 02:22:51;;;;;;;6.15;3.87;;;;;;;25.82;65.13;100401.39;1656712;84;21069;-47
2021/07/06 02:25:19;;;;;;;5.87;3.98;;;;;;;25.82;65.14;100408.05;1698592;83;21027;-48
2021/07/06 02:27:47;;;;;;;7.05;4.40;;;;;;;25.82;65.11;100412.05;1685274;84;21051;-47
2021/07/06 02:30:18;;;;;;;5.03;4.40;;;;;;;25.83;65.04;100411.09;1689125;84;21701;-48
2021/07/06 02:32:46;;;;;;;4.85;4.20;;;;;;;25.86;65.01;100409.98;1670635;84;21087;-47
2021/07/06 02:35:13;;;;;;;4.90;4.12;;;;;;;25.86;65.03;100417.12;1661097;84;21042;-48
2021/07/06 02:37:40;;;;;;;8.35;4.45;;;;;;;25.87;65.17;100416.13;1682552;85;21619;-47
2021/07/06 02:40:10;;;;;;;4.17;3.85;;;;;;;25.87;65.15;100418.30;1660519;84;21063;-47
2021/07/06 02:42:37;;;;;;;5.25;4.70;;;;;;;25.90;65.12;100415.86;1657869;84;21602;-48
2021/07/06 02:45:09;;;;;;;12.88;4.60;;;;;;;25.91;65.22;100425.05;1663759;84;21122;-50
2021/07/06 02:47:38;;;;;;;8.38;4.60;;;;;;;25.95;65.20;100429.59;1658150;84;21106;-47
2021/07/06 02:50:06;;;;;;;6.45;4.47;;;;;;;25.96;65.09;100426.81;1655765;84;21582;-48
2021/07/06 02:52:33;;;;;;;5.75;4.10;;;;;;;25.97;64.96;100428.97;1651896;84;21587;-48
2021/07/06 02:55:01;;;;;;;8.23;4.28;;;;;;;25.97;64.98;100435.63;1681003;83;21119;-48
2021/07/06 02:57:38;;;;;;;7.35;4.53;;;;;;;25.97;64.99;100435.63;1707890;83;21032;-47
2021/07/06 03:00:12;;;;;;;9.20;5.08;;;;;;;25.95;64.83;100434.93;1719242;83;21035;-47
2021/07/06 03:02:40;;;;;;;7.58;4.47;;;;;;;25.95;64.97;100442.93;1694338;83;21033;-48
2021/07/06 03:05:09;;;;;;;6.35;4.87;;;;;;;25.95;65.08;100433.59;1700915;83;21071;-47
2021/07/06 03:07:36;;;;;;;5.30;4.85;;;;;;;25.95;65.02;100440.27;1694058;83;21514;-47
2021/07/06 03:10:11;;;;;;;6.17;4.78;;;;;;;25.95;65.03;100440.27;1714607;83;21078;-47
2021/07/06 03:12:39;;;;;;;5.35;4.90;;;;;;;25.96;64.83;100441.96;1709218;83;21036;-46
2021/07/06 03:15:07;;;;;;;7.53;5.60;;;;;;;25.91;64.80;100442.38;1702240;83;21152;-47
2021/07/06 03:17:34;;;;;;;4.90;4.40;;;;;;;25.88;64.87;100441.81;1705117;83;21557;-48
2021/07/06 03:20:02;;;;;;;6.83;5.10;;;;;;;25.85;65.03;100442.92;1705875;83;21124;-47
2021/07/06 03:22:29;;;;;;;7.35;5.22;;;;;;;25.84;65.05;100444.73;1687758;83;21082;-48
2021/07/06 03:24:56;;;;;;;8.78;5.03;;;;;;;25.84;65.13;100444.73;1690837;83;21045;-48
2021/07/06 03:27:22;;;;;;;7.72;4.45;;;;;;;25.84;65.19;100450.08;1712667;83;21076;-47
2021/07/06 03:29:50;;;;;;;7.03;4.92;;;;;;;25.86;65.13;100443.78;1700475;83;21034;-47
2021/07/06 03:32:18;;;;;;;10.05;5.20;;;;;;;25.87;65.20;100452.11;1692787;83;21506;-48
2021/07/06 03:34:45;;;;;;;8.45;4.90;;;;;;;25.90;65.20;100447.85;1682478;83;21060;-52
2021/07/06 03:37:11;;;;;;;7.58;4.60;;;;;;;25.91;65.23;100444.19;1740333;82;21069;-47
2021/07/06 03:39:40;;;;;;;5.97;5.22;;;;;;;25.93;65.25;100444.89;1733628;82;21051;-47
2021/07/06 03:42:08;;;;;;;6.62;4.85;;;;;;;25.89;65.35;100451.48;1722803;82;21066;-47
2021/07/06 03:44:35;;;;;;;8.35;5.37;;;;;;;25.91;65.45;100450.37;1729357;82;21121;-48
2021/07/06 03:47:03;;;;;;;10.08;5.50;;;;;;;25.95;65.42;100454.92;1723100;82;21051;-48
2021/07/06 03:49:31;;;;;;;6.62;5.45;;;;;;;26.02;65.15;100456.92;1727311;82;21046;-47
2021/07/06 03:51:58;;;;;;;5.97;5.22;;;;;;;26.05;65.10;100459.81;1731131;82;21055;-48
2021/07/06 03:54:25;;;;;;;7.12;5.92;;;;;;;26.08;65.11;100462.21;1734001;82;21022;-52
2021/07/06 03:56:51;;;;;;;13.93;10.43;;;;;;;26.09;64.99;100471.91;1735802;82;21015;-48
2021/07/06 03:59:18;;;;;;;7.47;6.80;;;;;;;26.13;65.02;100471.98;1736553;82;21034;-48
2021/07/06 04:01:45;;;;;;;9.40;6.50;;;;;;;26.17;65.01;100477.39;1747078;82;21038;-46
2021/07/06 04:04:11;;;;;;;11.53;7.00;;;;;;;26.22;64.79;100475.98;1731432;81;20991;-47
2021/07/06 04:06:38;;;;;;;10.90;5.85;;;;;;;26.28;64.67;100482.58;1743491;82;21030;-49
2021/07/06 04:09:05;;;;;;;8.50;5.72;;;;;;;26.33;64.47;100483.86;1725915;82;21065;-48
2021/07/06 04:11:32;;;;;;;8.05;6.92;;;;;;;26.34;64.20;100488.68;1744928;82;21085;-46
2021/07/06 04:13:58;;;;;;;7.95;5.92;;;;;;;26.33;64.24;100488.34;1732795;82;21030;-48
2021/07/06 04:16:25;;;;;;;7.12;6.42;;;;;;;26.33;64.26;100491.02;1741832;82;21038;-48
2021/07/06 04:18:51;;;;;;;9.50;6.62;;;;;;;26.33;64.28;100487.02;1753627;82;21014;-49
2021/07/06 04:21:18;;;;;;;8.93;6.25;;;;;;;26.34;64.30;100496.20;1743058;82;21106;-48
2021/07/06 04:23:46;;;;;;;8.25;6.80;;;;;;;26.35;64.24;100496.57;1739111;82;21113;-47
2021/07/06 04:26:13;;;;;;;10.78;6.87;;;;;;;26.34;64.19;100492.69;1730914;82;21010;-51
2021/07/06 04:28:40;;;;;;;9.60;6.58;;;;;;;26.33;64.28;100495.02;1735425;82;21050;-48
2021/07/06 04:31:06;;;;;;;7.45;6.35;;;;;;;26.34;64.39;100496.20;1741273;82;21546;-47
2021/07/06 04:33:33;;;;;;;10.60;6.40;;;;;;;26.37;64.28;100503.09;1734705;82;21555;-50
2021/07/06 04:36:00;;;;;;;7.87;6.92;;;;;;;26.37;64.26;100497.75;1724866;82;21623;-48
2021/07/06 04:38:27;;;;;;;10.03;7.10;;;;;;;26.40;64.14;100500.12;1732736;82;20994;-48
2021/07/06 04:40:55;;;;;;;7.85;7.08;;;;;;;26.44;64.31;100504.23;1733572;82;21014;-48
2021/07/06 04:43:22;;;;;;;9.13;6.78;;;;;;;26.46;64.28;100504.41;1740865;82;21499;-47
2021/07/06 04:45:49;;;;;;;8.65;7.12;;;;;;;26.52;64.09;100507.03;1731455;82;21016;-48
2021/07/06 04:48:16;;;;;;;10.08;7.75;;;;;;;26.55;63.99;100504.06;1738800;82;21034;-48
2021/07/06 04:50:43;;;;;;;9.45;8.18;;;;;;;26.60;64.01;100509.32;1737363;82;21070;-47
2021/07/06 04:53:10;;;;;;;9.70;7.78;;;;;;;26.66;64.03;100504.42;1738005;82;21559;-48
2021/07/06 04:55:38;;;;;;;10.15;7.78;;;;;;;26.71;64.05;100508.34;1725066;82;21038;-47
2021/07/06 04:58:04;;;;;;;9.83;8.85;;;;;;;26.78;63.94;100505.50;1727894;82;21530;-46
2021/07/06 05:00:31;;;;;;;16.32;8.63;;;;;;;26.83;63.84;100509.89;1741188;82;21054;-52
2021/07/06 05:02:58;;;;;;;10.20;9.18;;;;;;;26.90;63.78;100513.69;1731108;82;21042;-49
2021/07/06 05:05:27;;;;;;;13.93;9.20;;;;;;;26.96;63.86;100510.45;1743482;82;21030;-46
2021/07/06 05:07:55;;;;;;;10.48;9.43;;;;;;;27.04;63.81;100514.58;1735939;81;20982;-47
2021/07/06 05:10:22;;;;;;;12.55;10.05;;;;;;;27.23;63.32;100514.53;1743757;82;21035;-46
2021/07/06 05:12:49;;;;;;;12.73;10.85;;;;;;;27.23;63.32;100514.53;1733874;82;21112;-47
2021/07/06 05:15:15;;;;;;;11.85;10.55;;;;;;;27.36;62.25;100515.09;1733308;82;21070;-46
2021/07/06 05:17:42;;;;;;;13.28;11.38;;;;;;;27.36;62.25;100515.09;1742709;81;21566;-48
2021/07/06 05:20:11;;;;;;;14.65;11.22;;;;;;;27.54;62.36;100517.83;1752984;82;21034;-49
2021/07/06 05:22:38;;;;;;;12.53;11.05;;;;;;;27.54;62.36;100517.83;1722837;81;21553;-46
2021/07/06 05:25:07;;;;;;;15.35;10.58;;;;;;;27.65;61.99;100524.81;1738916;82;21050;-46
2021/07/06 05:27:34;;;;;;;11.78;10.63;;;;;;;27.89;61.39;100525.95;1718000;83;21549;-47
2021/07/06 05:30:00;;;;;;;12.00;9.60;;;;;;;27.89;61.39;100525.95;1706397;83;21179;-50
2021/07/06 05:32:27;;;;;;;11.65;9.55;;;;;;;28.00;60.87;100530.30;1740220;82;21055;-46
2021/07/06 05:34:53;;;;;;;10.65;9.73;;;;;;;28.07;60.42;100523.34;1713388;81;21475;-45
2021/07/06 05:37:20;;;;;;;14.15;10.45;;;;;;;28.15;60.27;100530.14;1748939;82;21564;-46
2021/07/06 05:39:47;;;;;;;11.40;10.23;;;;;;;28.16;60.20;100525.97;1748941;82;20999;-46
2021/07/06 05:42:14;;;;;;;12.13;9.50;;;;;;;28.23;59.96;100534.73;1739417;82;21541;-48
2021/07/06 05:44:45;;;;;;;11.30;10.05;;;;;;;28.34;59.84;100537.20;1747144;81;20974;-52
2021/07/06 05:47:12;;;;;;;11.03;9.70;;;;;;;28.34;59.84;100537.20;1753691;80;21066;-50
2021/07/06 05:49:39;;;;;;;12.30;9.98;;;;;;;28.49;59.76;100536.98;1753156;80;20983;-46
2021/07/06 05:52:06;;;;;;;12.07;10.85;;;;;;;28.49;59.76;100536.98;1756379;80;21475;-49
2021/07/06 05:54:33;;;;;;;15.53;10.38;;;;;;;28.53;59.57;100535.69;1742968;81;21479;-50
2021/07/06 05:57:00;;;;;;;12.10;10.63;;;;;;;28.53;59.57;100535.69;1746294;80;21111;-51
2021/07/06 05:59:27;;;;;;;12.63;10.95;;;;;;;28.55;59.34;100536.38;1766388;80;21034;-47
2021/07/06 06:01:54;;;;;;;14.63;10.82;;;;;;;28.55;59.35;100537.23;1756398;81;21089;-49
2021/07/06 06:04:20;;;;;;;12.70;11.50;;;;;;;28.57;59.07;100540.62;1753566;80;21545;-49
2021/07/06 06:06:47;;;;;;;15.00;12.28;;;;;;;28.53;59.10;100544.56;1751382;81;21035;-50
2021/07/06 06:09:15;;;;;;;14.55;12.73;;;;;;;28.48;59.13;100541.50;1761498;80;21093;-48
2021/07/06 06:11:42;;;;;;;14.53;12.68;;;;;;;28.44;59.19;100548.15;1760927;80;21007;-51
2021/07/06 06:14:09;;;;;;;14.80;12.55;;;;;;;28.40;59.33;100552.13;1764560;80;20999;-48
2021/07/06 06:16:37;;;;;;;13.90;12.50;;;;;;;28.34;59.59;100550.05;1754545;80;21139;-49
2021/07/06 06:19:04;;;;;;;13.40;12.00;;;;;;;28.30;59.52;100551.35;1752082;80;20997;-47
2021/07/06 06:21:32;;;;;;;13.20;11.88;;;;;;;28.27;59.66;100551.67;1751887;80;21034;-48
2021/07/06 06:24:00;;;;;;;14.50;12.07;;;;;;;28.23;59.75;100558.32;1749363;80;21017;-48
2021/07/06 06:26:27;;;;;;;13.25;11.85;;;;;;;28.16;59.72;100554.55;1761398;80;21038;-49
2021/07/06 06:28:54;;;;;;;12.60;11.45;;;;;;;28.07;60.06;100555.44;1746455;81;21459;-48
2021/07/06 06:31:21;;;;;;;13.13;11.88;;;;;;;28.07;60.06;100555.44;1738599;80;21061;-50
2021/07/06 06:33:48;;;;;;;15.05;11.80;;;;;;;28.08;60.05;100567.84;1757562;80;21538;-50
2021/07/06 06:36:14;;;;;;;13.30;12.00;;;;;;;28.00;59.97;100567.74;1753409;80;21153;-49
2021/07/06 06:38:42;;;;;;;13.80;11.45;;;;;;;28.00;59.97;100567.74;1735707;81;21535;-50
2021/07/06 06:41:09;;;;;;;12.80;11.60;;;;;;;28.02;60.53;100578.65;1745011;81;21031;-51
2021/07/06 06:43:36;;;;;;;12.43;11.22;;;;;;;28.05;60.53;100578.82;1672525;83;21078;-48
2021/07/06 06:46:04;;;;;;;12.73;11.43;;;;;;;28.05;60.83;100573.47;1757665;80;21035;-48
2021/07/06 06:48:32;;;;;;;12.50;10.82;;;;;;;28.12;61.07;100575.91;1755402;80;21011;-49
2021/07/06 06:50:59;;;;;;;13.18;11.00;;;;;;;28.15;60.19;100575.63;1770102;80;21085;-48
2021/07/06 06:53:26;;;;;;;12.30;10.82;;;;;;;28.16;59.85;100582.64;1744469;80;21021;-48
2021/07/06 06:55:52;;;;;;;11.80;10.25;;;;;;;28.19;59.75;100586.37;1754866;80;21011;-48
2021/07/06 06:58:19;;;;;;;12.15;10.15;;;;;;;28.24;59.91;100579.20;1761616;80;21050;-46
2021/07/06 07:00:46;;;;;;;10.28;9.30;;;;;;;28.30;60.01;100578.11;1766148;80;20994;-48
2021/07/06 07:03:12;;;;;;;11.05;9.05;;;;;;;28.36;59.57;100580.19;1773073;80;21034;-50
2021/07/06 07:05:39;;;;;;;10.18;9.18;;;;;;;28.40;59.44;100574.05;1761110;80;21341;-47
2021/07/06 07:08:07;;;;;;;11.05;8.78;;;;;;;28.43;58.97;100570.57;1748783;80;20995;-51
2021/07/06 07:10:39;;;;;;;10.20;8.80;;;;;;;28.52;59.00;100573.66;1753602;80;21007;-49
2021/07/06 07:13:05;;;;;;;9.30;8.50;;;;;;;28.57;59.29;100577.25;1726210;82;21557;-51
2021/07/06 07:15:34;;;;;;;10.40;8.95;;;;;;;28.63;59.75;100575.30;1750527;80;21538;-48
2021/07/06 07:18:01;;;;;;;10.95;9.83;;;;;;;28.68;59.16;100572.53;1745575;81;21546;-47
2021/07/06 07:20:28;;;;;;;10.85;9.80;;;;;;;28.74;58.90;100574.59;1738225;81;21027;-49
2021/07/06 07:22:55;;;;;;;11.20;10.05;;;;;;;28.80;58.67;100580.67;1758329;80;21534;-49
2021/07/06 07:25:22;;;;;;;11.85;10.72;;;;;;;28.87;58.46;100582.23;1753184;80;20974;-49
2021/07/06 07:27:49;;;;;;;13.43;10.13;;;;;;;28.92;58.27;100583.45;1757919;80;21073;-51
2021/07/06 07:30:18;;;;;;;10.78;9.78;;;;;;;28.96;57.96;100592.86;1761795;80;21524;-48
2021/07/06 07:32:44;;;;;;;11.12;9.80;;;;;;;28.98;57.64;100590.02;1753572;80;21054;-47
2021/07/06 07:35:12;;;;;;;13.20;11.53;;;;;;;28.97;57.42;100590.51;1750526;80;21466;-47
2021/07/06 07:37:39;;;;;;;12.70;11.53;;;;;;;28.96;57.35;100592.01;1761541;80;21038;-48
2021/07/06 07:40:08;;;;;;;14.10;12.73;;;;;;;28.89;57.01;100597.14;1763563;80;21524;-50
2021/07/06 07:42:34;;;;;;;13.90;12.60;;;;;;;28.83;56.97;100591.06;1756265;80;21518;-47
2021/07/06 07:45:01;;;;;;;13.20;11.93;;;;;;;28.80;57.12;100596.73;1762974;80;21305;-47
2021/07/06 07:47:28;;;;;;;13.00;11.78;;;;;;;28.72;57.09;100589.97;1748785;80;20995;-48
2021/07/06 07:49:54;;;;;;;12.00;10.80;;;;;;;28.67;57.16;100600.78;1748736;80;21006;-51
2021/07/06 07:52:21;;;;;;;12.68;11.38;;;;;;;28.59;57.28;100600.20;1747575;80;21030;-49
2021/07/06 07:54:48;;;;;;;12.23;11.00;;;;;;;28.56;57.56;100605.88;1748190;80;21046;-48
2021/07/06 07:57:23;;;;;;;14.65;12.50;;;;;;;28.49;57.51;100606.09;1735855;80;20992;-49
2021/07/06 07:59:44;;;;;;;14.93;13.45;;;;;;;28.43;57.49;100610.72;1741552;80;21543;-49
2021/07/06 08:02:11;;;;;;;16.23;13.55;;;;;;;28.35;57.75;100605.28;1753492;80;21014;-48
2021/07/06 08:04:38;;;;;;;14.93;13.32;;;;;;;28.31;57.91;100605.23;1749490;81;21031;-48
2021/07/06 08:07:04;;;;;;;15.55;14.07;;;;;;;28.26;58.08;100608.84;1759157;80;21530;-48
2021/07/06 08:09:31;;;;;;;16.60;14.95;;;;;;;28.24;58.48;100616.67;1768944;80;20973;-47
2021/07/06 08:11:58;;;;;;;16.60;15.05;;;;;;;28.24;58.56;100616.18;1751832;81;20978;-47
2021/07/06 08:14:26;;;;;;;20.23;16.23;;;;;;;28.25;58.57;100621.89;1754763;80;20987;-48
2021/07/06 08:16:54;;;;;;;18.35;16.52;;;;;;;28.29;58.22;100627.30;1759211;80;21089;-53
2021/07/06 08:19:22;;;;;;;20.43;16.52;;;;;;;28.33;58.49;100629.16;1755256;80;20967;-52
2021/07/06 08:21:50;;;;;;;17.48;15.80;;;;;;;28.37;58.30;100628.72;1751090;80;21043;-47
2021/07/06 08:24:17;;;;;;;17.25;15.55;;;;;;;28.43;57.93;100636.64;1756547;80;20935;-47
2021/07/06 08:26:46;;;;;;;18.20;16.30;;;;;;;28.46;57.94;100635.02;1760862;80;21009;-48
2021/07/06 08:29:13;;;;;;;16.70;14.80;;;;;;;28.46;57.94;100635.02;1723212;81;20978;-49
2021/07/06 08:31:41;;;;;;;17.67;15.80;;;;;;;28.48;57.89;100637.04;1716981;81;21049;-47
2021/07/06 08:34:08;;;;;;;15.58;14.18;;;;;;;28.47;58.04;100641.55;1728676;81;21002;-47
2021/07/06 08:36:35;;;;;;;16.55;14.98;;;;;;;28.47;57.90;100640.20;1722880;81;21120;-46
2021/07/06 08:39:01;;;;;;;16.62;15.03;;;;;;;28.48;57.89;100647.23;1740372;82;20972;-49
2021/07/06 08:41:28;;;;;;;17.00;14.13;;;;;;;28.52;58.04;100640.58;1730345;82;21560;-47
2021/07/06 08:43:55;;;;;;;15.55;14.03;;;;;;;28.52;58.04;100640.58;1721139;81;20998;-49
2021/07/06 08:46:22;;;;;;;15.58;14.13;;;;;;;28.58;57.46;100648.56;1712876;82;21088;-48
2021/07/06 08:48:50;;;;;;;16.40;14.78;;;;;;;28.63;57.39;100641.75;1712491;81;20954;-47
2021/07/06 08:51:20;;;;;;;16.45;14.85;;;;;;;28.68;57.09;100650.19;1722670;82;21024;-50
2021/07/06 08:53:48;;;;;;;17.48;15.50;;;;;;;28.75;57.10;100655.26;1739777;82;21471;-49
2021/07/06 08:56:15;;;;;;;17.05;15.55;;;;;;;28.83;56.92;100659.36;1708842;82;21006;-49
2021/07/06 08:58:42;;;;;;;16.27;14.70;;;;;;;28.89;57.33;100656.06;1723443;82;20981;-48
2021/07/06 09:01:09;;;;;;;16.55;14.85;;;;;;;28.99;57.09;100658.69;1714478;81;21584;-49
2021/07/06 09:03:54;;;;;;;16.73;15.00;;;;;;;29.09;57.01;100658.59;1698284;82;21545;-49
2021/07/06 09:06:22;;;;;;;16.20;14.70;;;;;;;29.17;56.89;100653.34;1703732;82;21066;-49
2021/07/06 09:08:53;;;;;;;13.45;12.25;;;;;;;29.26;56.48;100662.66;1712905;82;21172;-51
2021/07/06 09:11:20;;;;;;;13.83;12.53;;;;;;;29.35;55.89;100662.19;1738497;80;21520;-47
2021/07/06 09:13:48;;;;;;;14.13;12.80;;;;;;;29.42;55.98;100663.27;1727824;81;21052;-50
2021/07/06 09:16:27;;;;;;;12.00;11.00;;;;;;;29.44;55.26;100659.44;1734927;81;21012;-49
2021/07/06 09:18:54;;;;;;;15.08;12.18;;;;;;;29.49;54.72;100665.67;1724055;82;21012;-49
2021/07/06 09:21:22;;;;;;;12.25;10.93;;;;;;;29.48;54.89;100674.70;1736652;82;21453;-50
2021/07/06 09:23:54;;;;;;;15.15;13.58;;;;;;;29.49;55.17;100675.06;1729306;81;21473;-49
2021/07/06 09:26:25;;;;;;;16.17;14.47;;;;;;;29.53;55.04;100679.11;1740731;80;21006;-50
2021/07/06 09:28:55;;;;;;;15.80;14.25;;;;;;;29.60;54.96;100678.31;1721511;82;20991;-49
2021/07/06 09:31:34;;;;;;;16.87;15.23;;;;;;;29.65;54.77;100684.06;1741483;82;21072;-50
2021/07/06 09:34:12;;;;;;;15.43;13.83;;;;;;;29.73;54.60;100676.59;1728547;82;21052;-50
2021/07/06 09:36:42;;;;;;;15.90;13.05;;;;;;;29.82;54.73;100675.62;1719927;82;21078;-50
2021/07/06 09:39:23;;;;;;;19.87;13.00;;;;;;;29.90;54.32;100665.47;1730358;82;20983;-48
2021/07/06 09:42:00;;;;;;;14.60;13.08;;;;;;;29.95;54.18;100669.34;1737680;82;20991;-50
2021/07/06 09:44:34;;;;;;;13.83;12.63;;;;;;;30.02;53.70;100665.03;1732825;81;21089;-52
2021/07/06 09:47:10;;;;;;;13.48;12.18;;;;;;;30.09;53.57;100674.11;1716374;81;20951;-49
2021/07/06 09:49:44;;;;;;;11.20;10.10;;;;;;;30.14;53.35;100666.44;1672970;83;21515;-50
2021/07/06 09:52:14;;;;;;;12.13;10.50;;;;;;;30.17;53.11;100668.78;1667480;85;21037;-51
2021/07/06 09:54:46;;;;;;;12.95;11.20;;;;;;;30.21;53.25;100668.80;1686327;83;21509;-51
2021/07/06 09:57:29;;;;;;;10.60;9.60;;;;;;;30.23;53.57;100664.11;1694522;83;21000;-49
2021/07/06 10:00:13;;;;;;;9.65;8.70;;;;;;;30.26;53.71;100663.80;1701045;83;21077;-51
2021/07/06 10:02:42;;;;;;;9.28;8.23;;;;;;;30.31;53.37;100661.52;1636879;86;21030;-49
2021/07/06 10:05:11;;;;;;;7.85;7.12;;;;;;;30.35;52.84;100664.22;1631509;86;21067;-50
2021/07/06 10:07:41;;;;;;;7.90;7.28;;;;;;;30.39;52.44;100664.72;1643040;86;21494;-48
2021/07/06 10:10:11;;;;;;;7.47;6.67;;;;;;;30.39;52.34;100662.89;1632637;85;20999;-49
2021/07/06 10:12:43;;;;;;;7.37;6.70;;;;;;;30.41;52.62;100663.56;1645669;86;21169;-49
2021/07/06 10:15:10;;;;;;;7.53;6.80;;;;;;;30.44;52.66;100659.19;1639049;85;21062;-47
2021/07/06 10:17:39;;;;;;;7.25;6.60;;;;;;;30.47;52.85;100656.20;1650784;85;21168;-50
2021/07/06 10:20:13;;;;;;;7.35;6.60;;;;;;;30.54;52.94;100661.23;1645031;85;21529;-48
2021/07/06 10:22:40;;;;;;;7.15;6.47;;;;;;;30.59;52.59;100660.75;1651597;85;21106;-50
2021/07/06 10:25:09;;;;;;;9.80;6.45;;;;;;;30.62;52.59;100662.28;1646147;84;21116;-50
2021/07/06 10:27:38;;;;;;;6.70;6.00;;;;;;;30.66;53.16;100666.31;1642047;86;21483;-50
2021/07/06 10:30:17;;;;;;;8.73;6.00;;;;;;;30.69;53.02;100671.34;1635848;86;21824;-50
2021/07/06 10:35:16;;;;;;;9.78;6.00;;;;;;;30.70;52.88;100670.35;1604103;87;21098;-49
2021/07/06 10:37:43;;;;;;;6.72;6.15;;;;;;;30.67;52.43;100662.61;1603436;87;21006;-49
2021/07/06 10:40:23;;;;;;;7.35;6.62;;;;;;;30.65;52.75;100666.81;1594588;88;21544;-49
2021/07/06 10:42:51;;;;;;;7.13;6.13;;;;;;;30.65;53.12;100657.91;1605885;87;21028;-48
2021/07/06 10:45:24;;;;;;;6.62;6.12;;;;;;;30.65;53.12;100657.91;1599583;88;21951;-50
2021/07/06 10:47:52;;;;;;;8.45;6.75;;;;;;;30.67;53.54;100661.27;1570589;90;21075;-49
2021/07/06 10:50:33;;;;;;;6.50;5.90;;;;;;;30.70;53.62;100670.35;1574556;90;20992;-48
2021/07/06 10:53:23;;;;;;;6.65;6.05;;;;;;;30.71;53.51;100669.36;1566900;90;21047;-49
2021/07/06 10:56:10;;;;;;;6.72;6.10;;;;;;;30.70;53.59;100673.03;1520259;93;21554;-49
2021/07/06 10:58:55;;;;;;;7.40;6.60;;;;;;;30.68;53.30;100672.36;1497913;94;21633;-50
2021/07/06 11:01:45;;;;;;;8.20;6.30;;;;;;;30.63;53.36;100674.69;1513203;94;21047;-51
2021/07/06 11:04:13;;;;;;;10.55;7.47;;;;;;;30.60;53.33;100675.03;1547370;91;21530;-49
2021/07/06 11:06:49;;;;;;;14.75;7.12;;;;;;;30.58;53.61;100673.01;1546949;91;20998;-50
2021/07/06 11:09:34;;;;;;;8.48;7.60;;;;;;;30.56;53.78;100669.64;1527579;91;21119;-50
2021/07/06 11:12:22;;;;;;;8.63;7.10;;;;;;;30.57;54.16;100671.31;1557252;88;21547;-49
2021/07/06 11:15:00;;;;;;;7.22;6.62;;;;;;;30.60;53.61;100671.00;1616886;88;21007;-50
2021/07/06 11:17:39;;;;;;;8.65;7.72;;;;;;;30.62;53.57;100668.98;1580609;89;21035;-49
2021/07/06 11:20:15;;;;;;;9.65;7.60;;;;;;;30.66;54.21;100671.69;1581442;89;21059;-50
2021/07/06 11:22:55;;;;;;;8.88;8.08;;;;;;;30.71;54.25;100669.36;1581717;89;21113;-52
2021/07/06 11:25:27;;;;;;;8.60;7.80;;;;;;;30.71;54.32;100665.33;1553135;91;21056;-49
2021/07/06 11:28:01;;;;;;;9.68;8.78;;;;;;;30.71;54.00;100671.52;1580140;90;21087;-49
2021/07/06 11:30:36;;;;;;;8.40;7.37;;;;;;;30.70;53.74;100674.37;1561281;90;21544;-50